FW8490 Weather Reports


Display with metric or nautical units.
time (UTC)temp
F
wind
direction
speed
MPH
gust
MPH
rain 1hr
in
rain 24hr
in
rain mn
in
humidity
%
barometer
mb
20210923122357 44 338 0.0 0.0 0.00 0.00 0.00 97 972.7
20210923121856 44 231 1.0 1.0 0.00 0.00 0.00 97 972.8
20210923121354 44 202 1.0 1.0 0.00 0.00 0.00 97 972.8
20210923120852 44 86 0.0 1.0 0.00 0.00 0.00 97 972.8
20210923120351 44 225 0.0 1.0 0.00 0.00 0.00 97 973.3
20210923115848 44 244 0.0 0.0 0.00 0.00 0.00 97 973.5
20210923115346 44 259 1.0 2.0 0.00 0.00 0.00 97 973.5
20210923114846 44 255 1.0 1.0 0.00 0.00 0.00 96 973.5
20210923114343 44 241 0.0 0.0 0.00 0.00 0.00 96 973.6
20210923113840 44 294 0.0 0.0 0.00 0.00 0.00 96 973.8
20210923113339 44 242 1.0 1.0 0.00 0.00 0.00 95 973.9
20210923112839 44 129 0.0 0.0 0.00 0.00 0.00 95 974.0
20210923112335 44 16 1.0 2.0 0.00 0.00 0.00 95 973.9
20210923111831 44 236 0.0 0.0 0.00 0.00 0.00 95 974.1
20210923111330 44 253 1.0 1.0 0.00 0.00 0.00 95 974.0
20210923110829 44 87 1.0 1.0 0.00 0.00 0.00 95 974.1
20210923110328 44 101 0.0 1.0 0.00 0.00 0.00 94 974.0
20210923105827 44 247 1.0 1.0 0.00 0.00 0.00 94 974.4
20210923105325 44 239 1.0 1.0 0.00 0.00 0.00 94 974.5
20210923104823 44 356 0.0 0.0 0.00 0.00 0.00 94 974.6
20210923104322 44 95 0.0 1.0 0.00 0.00 0.00 94 974.5
20210923103820 44 198 0.0 0.0 0.00 0.00 0.00 94 974.7
20210923103319 44 125 1.0 1.0 0.00 0.00 0.00 94 974.6
20210923102819 44 245 0.0 0.0 0.00 0.00 0.00 94 974.9
20210923102318 43 232 0.0 1.0 0.00 0.00 0.00 95 975.2
20210923101817 43 219 0.0 1.0 0.00 0.00 0.00 95 975.0
20210923101315 43 133 0.0 1.0 0.00 0.00 0.00 95 975.1
20210923100814 42 240 0.0 0.0 0.00 0.00 0.00 95 974.9
20210923100313 42 247 0.0 0.0 0.00 0.00 0.00 95 975.2
20210923095810 42 190 0.0 1.0 0.00 0.00 0.00 95 975.2
20210923095309 42 220 0.0 0.0 0.00 0.00 0.00 95 975.3
20210923094808 42 194 0.0 0.0 0.00 0.00 0.00 94 975.5
20210923094307 42 270 0.0 0.0 0.00 0.00 0.00 94 975.5
20210923093804 42 244 1.0 1.0 0.00 0.00 0.00 93 975.6
20210923093303 43 115 0.0 1.0 0.00 0.00 0.00 92 975.9
20210923092802 43 223 0.0 1.0 0.00 0.00 0.00 92 975.9
20210923092301 43 145 3.0 3.0 0.00 0.00 0.00 91 975.9
20210923091759 44 256 0.0 1.0 0.00 0.00 0.00 90 976.2
20210923091258 44 204 2.0 2.0 0.00 0.00 0.00 90 976.0
20210923090757 44 66 1.0 1.0 0.00 0.00 0.00 90 976.1
20210923090255 45 273 0.0 1.0 0.00 0.00 0.00 89 976.1
20210923085754 45 236 1.0 2.0 0.00 0.00 0.00 90 976.5
20210923085253 44 301 0.0 0.0 0.00 0.00 0.00 92 976.3
20210923084750 44 184 0.0 1.0 0.00 0.00 0.00 92 976.3
20210923084249 43 77 0.0 1.0 0.00 0.00 0.00 93 976.7
20210923083747 43 215 0.0 0.0 0.00 0.00 0.00 94 976.6
20210923083246 43 350 1.0 1.0 0.00 0.00 0.00 94 976.6
20210923082746 43 213 1.0 2.0 0.00 0.00 0.00 93 976.8
20210923082246 43 106 1.0 1.0 0.00 0.00 0.00 92 976.6
20210923081744 43 166 1.0 1.0 0.00 0.00 0.00 93 976.7
20210923081240 43 229 0.0 0.0 0.00 0.00 0.00 93 976.8
20210923080737 42 270 1.0 2.0 0.00 0.00 0.00 93 977.0
20210923080237 42 239 0.0 0.0 0.00 0.00 0.00 95 976.7
20210923075736 41 240 0.0 1.0 0.00 0.00 0.00 95 977.0
20210923075234 41 92 1.0 1.0 0.00 0.00 0.00 97 977.0
20210923074734 41 264 1.0 1.0 0.00 0.00 0.00 99 977.1
20210923074232 41 176 0.0 1.0 0.00 0.00 0.00 99 977.3
20210923073731 41 328 0.0 1.0 0.00 0.00 0.00 99 977.4
20210923073229 40 224 3.0 5.0 0.00 0.00 0.00 99 977.2
20210923072727 40 251 0.0 1.0 0.00 0.00 0.00 99 977.4
20210923072226 40 184 0.0 1.0 0.00 0.00 0.00 99 977.6
20210923071726 40 243 0.0 0.0 0.00 0.00 0.00 99 977.6
20210923071225 40 235 0.0 0.0 0.00 0.00 0.00 99 977.6
20210923070724 40 245 0.0 0.0 0.00 0.00 0.00 99 977.7
20210923070222 40 256 0.0 0.0 0.00 0.00 0.00 99 977.8
20210923065721 40 257 0.0 0.0 0.00 0.00 0.00 99 977.9
20210923065220 40 249 0.0 0.0 0.00 0.00 0.00 99 978.0
20210923064719 40 262 0.0 0.0 0.00 0.00 0.00 99 977.9
20210923064217 39 238 0.0 0.0 0.00 0.00 0.00 99 977.9
20210923063714 39 246 0.0 0.0 0.00 0.00 0.00 99 977.9
20210923063213 39 183 0.0 1.0 0.00 0.00 0.00 99 978.1
20210923062712 39 212 0.0 0.0 0.00 0.00 0.00 99 978.2
20210923062211 39 231 1.0 1.0 0.00 0.00 0.00 99 978.4
20210923061710 38 212 0.0 0.0 0.00 0.00 0.00 99 978.3
20210923061209 38 122 1.0 1.0 0.00 0.00 0.00 99 978.4
20210923060705 38 240 0.0 0.0 0.00 0.00 0.00 99 978.4
20210923060205 38 202 0.0 1.0 0.00 0.00 0.00 99 978.6
20210923055700 38 237 0.0 0.0 0.00 0.00 0.00 99 978.6
20210923055159 38 242 0.0 0.0 0.00 0.00 0.00 99 978.6
20210923054658 38 224 1.0 1.0 0.00 0.00 0.00 99 978.7
20210923054156 38 236 1.0 2.0 0.00 0.00 0.00 99 978.8
20210923053656 37 193 1.0 1.0 0.00 0.00 0.00 99 978.9
20210923053154 37 222 0.0 0.0 0.00 0.00 0.00 99 978.9
20210923052649 37 245 0.0 0.0 0.00 0.00 0.00 99 979.0
20210923052146 37 249 0.0 1.0 0.00 0.00 0.00 99 978.9
20210923051644 37 241 0.0 0.0 0.00 0.00 0.00 99 978.9
20210923051141 36 241 0.0 0.0 0.00 0.00 0.00 99 979.1
20210923050634 35 252 0.0 0.0 0.00 0.00 0.00 99 979.3
20210923050132 35 245 0.0 0.0 0.00 0.00 0.00 99 979.0
20210923045631 34 255 0.0 0.0 0.00 0.00 0.00 99 979.2
20210923045131 34 257 0.0 0.0 0.00 0.00 0.00 99 979.1
20210923044629 33 238 0.0 0.0 0.00 0.00 0.00 99 979.2
20210923044128 32 258 0.0 1.0 0.00 0.00 0.00 99 979.2
20210923043627 32 255 0.0 0.0 0.00 0.00 0.00 99 979.3
20210923043125 31 257 0.0 0.0 0.00 0.00 0.00 99 979.5
20210923042623 31 257 0.0 0.0 0.00 0.00 0.00 99 979.4
20210923042122 31 256 0.0 0.0 0.00 0.00 0.00 99 979.4
20210923041620 31 255 0.0 0.0 0.00 0.00 0.00 99 979.3
20210923041117 31 255 0.0 0.0 0.00 0.00 0.00 99 979.4
20210923040616 31 255 0.0 0.0 0.00 0.00 0.00 99 979.6
20210923040116 31 255 0.0 0.0 0.00 0.00 0.00 99 979.7
20210923035614 31 255 0.0 0.0 0.00 0.00 0.00 99 979.8
20210923035113 31 255 0.0 0.0 0.00 0.00 0.00 99 979.9
20210923034611 31 255 0.0 0.0 0.00 0.00 0.00 99 980.0
20210923034111 31 252 0.0 0.0 0.00 0.00 0.00 99 980.1
20210923033609 31 252 0.0 0.0 0.00 0.00 0.00 99 980.2
20210923033108 31 251 0.0 0.0 0.00 0.00 0.00 99 980.0
20210923032605 31 251 0.0 0.0 0.00 0.00 0.00 99 980.1
20210923032104 32 258 0.0 0.0 0.00 0.00 0.00 99 980.1
20210923031603 31 258 0.0 0.0 0.00 0.00 0.00 99 980.3
20210923031103 31 258 0.0 0.0 0.00 0.00 0.00 99 980.1
20210923030602 31 253 0.0 0.0 0.00 0.00 0.00 99 980.3
20210923030059 31 243 0.0 0.0 0.00 0.00 0.00 99 980.6
20210923025559 31 243 0.0 0.0 0.00 0.00 0.00 99 980.5
20210923025057 31 243 0.0 0.0 0.00 0.00 0.00 99 980.6
20210923024555 31 243 0.0 0.0 0.00 0.00 0.00 99 980.6
20210923024054 30 243 0.0 0.0 0.00 0.00 0.00 99 980.8
20210923023552 30 243 0.0 0.0 0.00 0.00 0.00 99 980.9
20210923023051 30 243 0.0 0.0 0.00 0.00 0.00 99 980.8
20210923022550 30 243 0.0 0.0 0.00 0.00 0.00 99 981.0
20210923022049 30 243 0.0 0.0 0.00 0.00 0.00 99 981.0
20210923021547 30 243 0.0 0.0 0.00 0.00 0.00 99 981.2
20210923021046 29 243 0.0 0.0 0.00 0.00 0.00 99 981.2
20210923020544 29 243 0.0 0.0 0.00 0.00 0.00 99 981.1
20210923020042 29 243 0.0 0.0 0.00 0.00 0.00 99 981.2
20210923015542 29 243 0.0 0.0 0.00 0.00 0.00 99 981.0
20210923015040 29 243 0.0 0.0 0.00 0.00 0.00 99 981.4
20210923014538 29 243 0.0 0.0 0.00 0.00 0.00 99 981.4
20210923014038 29 243 0.0 0.0 0.00 0.00 0.00 99 981.7
20210923013536 29 243 0.0 0.0 0.00 0.00 0.00 99 981.7
20210923013034 29 243 0.0 0.0 0.00 0.00 0.00 99 981.7
20210923012532 29 243 0.0 1.0 0.00 0.00 0.00 99 981.8
20210923012031 29 243 0.0 0.0 0.00 0.00 0.00 99 981.8
20210923011530 30 243 0.0 0.0 0.00 0.00 0.00 99 981.8
20210923011027 30 242 0.0 0.0 0.00 0.00 0.00 99 982.1
20210923010524 29 242 0.0 0.0 0.00 0.00 0.00 99 982.2
20210923010023 29 243 0.0 0.0 0.00 0.00 0.00 99 982.1
20210923005521 29 243 0.0 0.0 0.00 0.00 0.00 99 982.1
20210923005021 29 243 0.0 0.0 0.00 0.00 0.00 99 982.1
20210923004520 30 243 0.0 0.0 0.00 0.00 0.00 99 982.4
20210923004019 29 243 0.0 0.0 0.00 0.00 0.00 99 982.4
20210923003518 30 243 0.0 0.0 0.00 0.00 0.00 99 982.1
20210923003016 30 243 0.0 0.0 0.00 0.00 0.00 99 982.5
20210923002513 30 243 0.0 0.0 0.00 0.00 0.00 99 982.6
20210923002012 30 243 0.0 0.0 0.00 0.00 0.00 99 982.4
20210923001510 30 243 0.0 0.0 0.00 0.00 0.00 99 982.7
20210923001009 30 243 0.0 0.0 0.00 0.00 0.00 99 982.7
20210923000508 30 243 0.0 0.0 0.00 0.00 0.00 99 982.8
20210923000005 30 243 0.0 0.0 0.00 0.00 0.00 99 982.9
20210922235504 30 243 0.0 0.0 0.00 0.00 0.00 99 983.0
20210922235004 30 242 0.0 0.0 0.00 0.00 0.00 99 983.2
20210922234501 31 242 0.0 0.0 0.00 0.00 0.00 99 983.3
20210922233959 31 243 0.0 0.0 0.00 0.00 0.00 99 983.2
20210922233458 31 243 0.0 0.0 0.00 0.00 0.00 99 983.3
20210922232956 31 243 0.0 0.0 0.00 0.00 0.00 99 983.3
20210922232454 31 242 0.0 0.0 0.00 0.00 0.00 99 983.4
20210922231954 31 242 0.0 0.0 0.00 0.00 0.00 99 983.7
20210922231453 31 242 0.0 0.0 0.00 0.00 0.00 99 983.6
20210922230946 31 242 0.0 0.0 0.00 0.00 0.00 99 983.6
20210922230443 31 253 0.0 0.0 0.00 0.00 0.00 99 983.7
20210922225940 31 253 0.0 0.0 0.00 0.00 0.00 99 983.8
20210922225440 31 253 0.0 0.0 0.00 0.00 0.00 99 983.7
20210922224938 31 244 0.0 0.0 0.00 0.00 0.00 99 983.8
20210922224437 31 240 0.0 0.0 0.00 0.00 0.00 99 983.9
20210922223937 30 263 0.0 0.0 0.00 0.00 0.00 99 984.0
20210922223435 30 264 0.0 0.0 0.00 0.00 0.00 99 983.8
20210922222931 30 264 0.0 0.0 0.00 0.00 0.00 99 984.0
20210922222428 30 263 0.0 0.0 0.00 0.00 0.00 99 984.0
20210922221922 30 264 0.0 0.0 0.00 0.00 0.00 99 984.1
20210922221422 31 263 0.0 0.0 0.00 0.00 0.00 99 984.3
20210922220920 31 264 0.0 0.0 0.00 0.00 0.00 99 984.2
20210922220419 31 264 0.0 0.0 0.00 0.00 0.00 99 984.3
20210922215917 31 264 0.0 1.0 0.00 0.00 0.00 99 984.4
20210922215412 31 259 0.0 1.0 0.00 0.00 0.00 99 984.2
20210922214911 31 257 0.0 0.0 0.00 0.00 0.00 99 984.3
20210922214409 31 257 0.0 0.0 0.00 0.00 0.00 99 984.4
20210922213907 31 257 0.0 0.0 0.00 0.00 0.00 99 984.5
20210922213406 32 255 0.0 0.0 0.00 0.00 0.00 99 984.6
20210922212904 32 251 0.0 0.0 0.00 0.00 0.00 99 984.5
20210922212404 32 238 0.0 0.0 0.00 0.00 0.00 99 984.5
20210922211902 32 238 0.0 0.0 0.00 0.00 0.00 99 984.5
20210922211400 32 238 0.0 0.0 0.00 0.00 0.00 99 984.6
20210922210859 32 238 0.0 0.0 0.00 0.00 0.00 99 984.7
20210922210357 32 238 0.0 0.0 0.00 0.00 0.00 99 984.9
20210922205857 33 238 0.0 0.0 0.00 0.00 0.00 99 984.9
20210922205356 33 238 0.0 0.0 0.00 0.00 0.00 98 984.9
20210922204854 33 239 0.0 0.0 0.00 0.00 0.00 98 985.1
20210922204348 33 240 0.0 0.0 0.00 0.00 0.00 98 985.0
20210922203840 33 263 0.0 0.0 0.00 0.00 0.00 98 984.8
20210922203340 33 249 0.0 0.0 0.00 0.00 0.00 98 984.9
20210922202840 33 254 0.0 0.0 0.00 0.00 0.00 98 984.9
20210922202340 34 256 0.0 0.0 0.00 0.00 0.00 98 985.1
20210922201838 34 265 1.0 1.0 0.00 0.00 0.00 98 985.3
20210922201336 34 257 1.0 1.0 0.00 0.00 0.00 98 985.1
20210922200835 34 258 1.0 1.0 0.00 0.00 0.00 97 985.0
20210922200333 35 254 1.0 1.0 0.00 0.00 0.00 97 985.3
20210922195831 35 252 0.0 0.0 0.00 0.00 0.00 97 985.0
20210922195330 35 259 0.0 1.0 0.00 0.00 0.00 97 985.1
20210922194828 35 257 0.0 1.0 0.00 0.00 0.00 97 985.3
20210922194327 35 253 0.0 0.0 0.00 0.00 0.00 97 985.3
20210922193826 35 234 0.0 0.0 0.00 0.00 0.00 97 985.3
20210922193326 36 227 0.0 0.0 0.00 0.00 0.00 97 985.5
20210922192824 36 239 0.0 0.0 0.00 0.00 0.00 97 985.7
20210922192324 36 245 0.0 0.0 0.00 0.00 0.00 98 985.6
20210922191824 36 240 0.0 0.0 0.00 0.00 0.00 98 985.8
20210922191321 36 247 0.0 0.0 0.00 0.00 0.00 98 985.8
20210922190820 35 240 0.0 0.0 0.00 0.00 0.00 98 986.0
20210922190317 36 238 0.0 0.0 0.00 0.00 0.00 98 985.6
20210922185816 36 254 0.0 1.0 0.00 0.00 0.00 98 985.8
20210922185314 36 253 0.0 0.0 0.00 0.00 0.00 98 985.8
20210922184812 36 243 0.0 0.0 0.00 0.00 0.00 98 986.0
20210922184310 36 240 0.0 0.0 0.00 0.00 0.00 98 985.8
20210922183809 36 240 0.0 0.0 0.00 0.00 0.00 98 986.1
20210922183308 36 240 0.0 0.0 0.00 0.00 0.00 98 986.0
20210922182806 36 240 0.0 0.0 0.00 0.00 0.00 98 985.8
20210922182306 36 255 0.0 0.0 0.00 0.00 0.00 98 985.9
20210922181803 36 255 0.0 0.0 0.00 0.00 0.00 98 986.0
20210922181302 36 247 0.0 0.0 0.00 0.00 0.00 98 986.0
20210922180801 36 243 0.0 0.0 0.00 0.00 0.00 98 985.9
20210922180259 36 243 0.0 0.0 0.00 0.00 0.00 98 986.1
20210922175759 36 243 0.0 0.0 0.00 0.00 0.00 98 985.9
20210922175257 36 244 0.0 0.0 0.00 0.00 0.00 98 986.0
20210922174757 36 244 0.0 0.0 0.00 0.00 0.00 98 986.2
20210922174255 36 244 0.0 0.0 0.00 0.00 0.00 98 986.1
20210922173754 36 244 0.0 0.0 0.00 0.00 0.00 98 986.2
20210922173252 36 244 0.0 0.0 0.00 0.00 0.00 98 986.2
20210922172752 36 244 0.0 0.0 0.00 0.00 0.00 98 986.2
20210922172250 36 244 0.0 0.0 0.00 0.00 0.00 98 986.5
20210922171748 36 244 0.0 0.0 0.00 0.00 0.00 98 986.2
20210922171247 36 244 0.0 0.0 0.00 0.00 0.00 97 986.2
20210922170745 36 244 0.0 0.0 0.00 0.00 0.00 97 986.1
20210922170242 36 244 0.0 0.0 0.00 0.00 0.00 97 986.3
20210922165740 36 244 0.0 0.0 0.00 0.00 0.00 97 986.2
20210922165237 36 244 0.0 0.0 0.00 0.00 0.00 97 986.3
20210922164735 36 244 0.0 0.0 0.00 0.00 0.00 96 986.0
20210922164234 37 244 0.0 0.0 0.00 0.00 0.00 96 986.1
20210922163729 37 244 0.0 0.0 0.00 0.00 0.00 96 986.0
20210922163217 37 244 0.0 0.0 0.00 0.00 0.00 95 986.3
20210922162656 37 213 0.0 1.0 0.00 0.00 0.00 95 986.2
20210922162153 38 241 0.0 0.0 0.00 0.00 0.00 95 986.3
20210922161651 38 241 0.0 0.0 0.00 0.00 0.00 94 986.2
20210922161150 38 241 0.0 0.0 0.00 0.00 0.00 94 986.1
20210922160648 39 241 0.0 0.0 0.00 0.00 0.00 93 986.1
20210922160147 39 241 0.0 0.0 0.00 0.00 0.00 93 986.2
20210922155647 39 241 0.0 0.0 0.00 0.00 0.00 92 986.2
20210922155145 40 241 0.0 0.0 0.00 0.00 0.00 91 986.5
20210922154644 40 241 0.0 0.0 0.00 0.00 0.00 91 986.4
20210922154142 41 241 0.0 0.0 0.00 0.00 0.00 90 986.6
20210922153639 41 241 0.0 0.0 0.00 0.00 0.00 89 986.4
20210922153138 41 241 0.0 0.0 0.00 0.00 0.00 89 986.6
20210922152637 42 241 0.0 0.0 0.00 0.00 0.00 88 986.6
20210922152136 42 241 0.0 0.0 0.00 0.00 0.00 89 986.5
20210922151633 42 241 0.0 0.0 0.00 0.00 0.00 88 986.6
20210922151133 42 241 0.0 0.0 0.00 0.00 0.00 89 986.7
20210922150633 43 242 0.0 0.0 0.00 0.00 0.00 87 986.8
20210922150130 44 241 0.0 0.0 0.00 0.00 0.00 86 986.8
20210922145629 44 241 0.0 0.0 0.00 0.00 0.00 86 986.8
20210922145126 44 232 0.0 0.0 0.00 0.00 0.00 85 986.8
20210922144625 44 242 0.0 0.0 0.00 0.00 0.00 84 986.9
20210922144126 44 242 0.0 0.0 0.00 0.00 0.00 82 987.1
20210922143624 45 242 0.0 0.0 0.00 0.00 0.00 82 987.1
20210922143123 45 243 0.0 0.0 0.00 0.00 0.00 78 987.2
20210922142621 46 243 0.0 0.0 0.00 0.00 0.00 76 987.2
20210922142118 46 241 0.0 0.0 0.00 0.00 0.00 75 987.2
20210922141618 46 229 0.0 0.0 0.00 0.00 0.00 75 987.5
20210922141105 46 235 0.0 0.0 0.00 0.00 0.00 73 987.4
20210922140602 46 214 0.0 0.0 0.00 0.00 0.00 74 987.4
20210922140101 46 251 0.0 0.0 0.00 0.00 0.00 75 987.6
20210922135559 46 258 0.0 0.0 0.00 0.00 0.00 73 987.5
20210922135059 46 190 0.0 0.0 0.00 0.00 0.00 76 987.5
20210922134555 46 237 0.0 0.0 0.00 0.00 0.00 74 987.2
20210922134055 46 254 0.0 0.0 0.00 0.00 0.00 74 987.6
20210922133554 46 196 1.0 1.0 0.00 0.00 0.00 74 987.8
20210922133052 46 239 0.0 0.0 0.00 0.00 0.00 74 987.6
20210922132552 46 206 0.0 1.0 0.00 0.00 0.00 71 987.8
20210922132050 46 182 0.0 0.0 0.00 0.00 0.00 74 987.9
20210922131549 46 258 0.0 0.0 0.00 0.00 0.00 73 987.7
20210922131048 47 250 0.0 0.0 0.00 0.00 0.00 72 987.9
20210922130546 47 252 0.0 0.0 0.00 0.00 0.00 74 988.0
20210922130043 47 232 0.0 0.0 0.00 0.00 0.00 71 988.1
20210922125538 47 156 1.0 1.0 0.00 0.00 0.00 70 987.9
20210922125038 47 262 0.0 1.0 0.00 0.00 0.00 72 988.0
20210922124536 48 255 0.0 0.0 0.00 0.00 0.00 70 988.1
20210922124035 48 184 1.0 1.0 0.00 0.00 0.00 69 988.0
20210922123534 48 226 0.0 0.0 0.00 0.00 0.00 70 988.1
20210922123033 48 252 2.0 2.0 0.00 0.00 0.00 70 988.1